createdAt,value
2017-11-04T11:49:40.241Z,71.22
2017-11-04T11:50:40.251Z,71.32
2017-11-04T11:51:40.272Z,70.84
2017-11-04T11:52:39.953Z,70.65
2017-11-04T11:53:40.290Z,70.56
2017-11-04T11:54:40.305Z,70.56
2017-11-04T11:55:39.980Z,70.36
2017-11-04T11:56:40.003Z,70.36
2017-11-04T11:57:40.350Z,70.56
2017-11-04T11:58:40.023Z,70.68
2017-11-04T11:59:40.374Z,70.5
2017-11-04T12:00:40.388Z,70.59
2017-11-04T12:01:40.413Z,70.4
2017-11-04T12:02:40.085Z,69.64
2017-11-04T12:03:40.434Z,69.54
2017-11-04T12:04:40.110Z,69.73
2017-11-04T12:05:40.462Z,69.54
2017-11-04T12:06:40.489Z,69.82
2017-11-04T12:07:40.159Z,69.54
2017-11-04T12:08:40.593Z,69.54
2017-11-04T12:09:40.526Z,69.73
2017-11-04T12:10:40.211Z,69.73
2017-11-04T12:11:40.566Z,69.82
2017-11-04T12:12:40.586Z,69.54
2017-11-04T12:13:40.623Z,70.01
2017-11-04T12:14:40.280Z,69.64
2017-11-04T12:15:40.629Z,69.73
2017-11-04T12:16:40.312Z,69.82
2017-11-04T12:17:40.326Z,69.64
2017-11-04T12:18:40.348Z,70.01
2017-11-04T12:19:40.365Z,69.35
2017-11-04T12:20:40.714Z,69.54
2017-11-04T12:21:40.730Z,69.54
2017-11-04T12:22:40.749Z,69.64
2017-11-04T12:23:40.769Z,69.92
2017-11-04T12:24:40.451Z,69.64
2017-11-04T12:25:40.819Z,69.54
2017-11-04T12:26:40.484Z,70.21
2017-11-04T12:27:40.502Z,69.35
2017-11-04T12:28:40.520Z,69.15
2017-11-04T12:29:40.541Z,69.35
2017-11-04T12:30:40.895Z,69.92
2017-11-04T12:31:40.911Z,69.15
2017-11-04T12:32:40.598Z,69.54
2017-11-04T12:33:40.611Z,69.73
2017-11-04T12:34:40.630Z,69.73
2017-11-04T12:35:40.649Z,69.54
2017-11-04T12:36:40.669Z,69.54
2017-11-04T12:37:41.027Z,69.44
2017-11-04T12:38:41.038Z,69.64
2017-11-04T12:39:41.058Z,69.73
2017-11-04T12:40:41.075Z,69.44
2017-11-04T12:41:41.122Z,69.64
2017-11-04T12:42:41.112Z,69.44
2017-11-04T12:43:40.795Z,69.57
2017-11-04T12:44:40.821Z,68.77
2017-11-04T12:45:41.171Z,68.77
2017-11-04T12:46:41.193Z,69
2017-11-04T12:47:41.205Z,68.9
2017-11-04T12:48:41.226Z,69.09
2017-11-04T12:49:40.909Z,68.71
2017-11-04T12:50:40.929Z,68.8
2017-11-04T12:51:40.946Z,69.09
2017-11-04T12:52:41.300Z,68.33
2017-11-04T12:53:41.318Z,68.62
2017-11-04T12:54:41.002Z,68.23
2017-11-04T12:55:41.365Z,68.13
2017-11-04T12:56:41.041Z,67.85
2017-11-04T12:57:41.060Z,67.76
2017-11-04T12:58:41.079Z,67.76
2017-11-04T12:59:41.438Z,67.85
2017-11-04T13:00:41.457Z,68.62
2017-11-04T13:01:41.139Z,67.85
2017-11-04T13:02:41.498Z,68.8
2017-11-04T13:03:41.176Z,67.76
2017-11-04T13:04:41.230Z,68.71
2017-11-04T13:05:41.550Z,68.42
2017-11-04T13:06:41.568Z,67.94
2017-11-04T13:07:41.593Z,68.13
2017-11-04T13:08:41.608Z,68.42
2017-11-04T13:09:41.625Z,68.04
2017-11-04T13:10:41.646Z,67.94
2017-11-04T13:11:41.331Z,67.85
2017-11-04T13:12:41.350Z,67.56
2017-11-04T13:13:41.704Z,67.66
2017-11-04T13:14:41.730Z,67.94
2017-11-04T13:15:41.412Z,67.94
2017-11-04T13:16:41.764Z,67.76
2017-11-04T13:17:41.787Z,67.66
2017-11-04T13:18:41.472Z,67.66
2017-11-04T13:19:41.487Z,67.94
2017-11-04T13:20:41.506Z,68.04
2017-11-04T13:21:41.858Z,69.09
2017-11-04T13:22:41.880Z,68.23
2017-11-04T13:23:41.565Z,68.49
2017-11-04T13:24:41.919Z,69
2017-11-04T13:25:41.960Z,68.8
2017-11-04T13:26:41.967Z,68.42
2017-11-04T13:27:41.982Z,68.33
2017-11-04T13:28:41.999Z,68.33
2017-11-04T13:29:41.684Z,68.8
2017-11-04T13:30:42.038Z,68.42
2017-11-04T13:31:42.070Z,68.52
2017-11-04T13:32:41.741Z,68.9
2017-11-04T13:33:42.096Z,68.13
2017-11-04T13:34:41.780Z,68.33
2017-11-04T13:35:41.802Z,68.62
2017-11-04T13:36:42.160Z,68.23
2017-11-04T13:37:41.841Z,68.33
2017-11-04T13:38:42.199Z,68.42
2017-11-04T13:39:42.214Z,68.23
2017-11-04T13:40:42.233Z,68.42
2017-11-04T13:41:41.919Z,68.33
2017-11-04T13:42:42.278Z,68.23
2017-11-04T13:43:41.961Z,67.85
2017-11-04T13:44:41.990Z,67.85
2017-11-04T13:45:42.334Z,67.76
2017-11-04T13:46:42.355Z,67.85
2017-11-04T13:47:42.378Z,67.76
2017-11-04T13:48:42.393Z,67.94
2017-11-04T13:49:42.414Z,68.2
2017-11-04T13:50:42.432Z,68.68
2017-11-04T13:51:42.456Z,68.13
2017-11-04T13:52:42.137Z,68.68
2017-11-04T13:53:42.492Z,68.01
2017-11-04T13:54:42.513Z,68.71
2017-11-04T13:55:42.204Z,68.62
2017-11-04T13:56:42.568Z,68.2
2017-11-04T13:57:42.572Z,68.77
2017-11-04T13:58:42.591Z,68.2
2017-11-04T13:59:42.279Z,68.2
2017-11-04T14:00:42.301Z,68.58
2017-11-04T14:01:42.651Z,68.1
2017-11-04T14:02:42.335Z,67.91
2017-11-04T14:03:42.690Z,67.82
2017-11-04T14:04:42.375Z,68.2
2017-11-04T14:05:42.736Z,68.58
2017-11-04T14:06:42.414Z,67.91
2017-11-04T14:07:42.769Z,68.01
2017-11-04T14:08:42.792Z,68.77
2017-11-04T14:09:42.478Z,67.91
2017-11-04T14:10:42.495Z,68.2
2017-11-04T14:11:42.515Z,68.29
2017-11-04T14:12:42.534Z,68.29
2017-11-04T14:13:42.557Z,68.1
2017-11-04T14:14:42.906Z,68.39
2017-11-04T14:15:42.593Z,68.68
2017-11-04T14:16:42.947Z,68.49
2017-11-04T14:17:42.969Z,68.58
2017-11-04T14:18:42.991Z,68.68
2017-11-04T14:19:43.008Z,68.87
2017-11-04T14:20:43.031Z,67.82
2017-11-04T14:21:43.049Z,68.58
2017-11-04T14:22:43.076Z,67.82
2017-11-04T14:23:43.095Z,67.91
2017-11-04T14:24:43.135Z,68.49
2017-11-04T14:25:43.132Z,68.29
2017-11-04T14:26:43.150Z,68.1
2017-11-04T14:27:43.166Z,68.49
2017-11-04T14:28:43.186Z,68.87
2017-11-04T14:29:42.873Z,68.39
2017-11-04T14:30:42.895Z,68.49
2017-11-04T14:31:43.251Z,68.68
2017-11-04T14:32:42.933Z,68.96
2017-11-04T14:33:42.958Z,68.29
2017-11-04T14:34:42.974Z,68.68
2017-11-04T14:35:43.330Z,68.68
2017-11-04T14:36:43.354Z,68.58
2017-11-04T14:37:43.368Z,68.29
2017-11-04T14:38:43.053Z,69.15
2017-11-04T14:39:43.071Z,68.96
2017-11-04T14:40:43.431Z,68.77
2017-11-04T14:41:43.112Z,69.25
2017-11-04T14:42:43.472Z,68.68
2017-11-04T14:43:43.151Z,69.15
2017-11-04T14:44:43.176Z,68.64
2017-11-04T14:45:43.525Z,68.93
2017-11-04T14:46:43.216Z,69.02
2017-11-04T14:47:43.230Z,69.21
2017-11-04T14:48:43.584Z,69.41
2017-11-04T14:49:43.291Z,68.68
2017-11-04T14:50:43.640Z,68.74
2017-11-04T14:51:43.313Z,68.93
2017-11-04T14:52:43.665Z,69.02
2017-11-04T14:53:43.361Z,68.84
2017-11-04T14:54:43.372Z,68.45
2017-11-04T14:55:43.725Z,68.74
2017-11-04T14:56:43.408Z,68.84
2017-11-04T14:57:43.762Z,68.64
2017-11-04T14:58:43.465Z,69.12
2017-11-04T14:59:43.807Z,68.93
2017-11-04T15:00:43.488Z,68.93
2017-11-04T15:01:43.847Z,68.84
2017-11-04T15:02:43.529Z,68.64
2017-11-04T15:03:43.884Z,68.64
2017-11-04T15:04:43.567Z,68.74
2017-11-04T15:05:43.919Z,68.74
2017-11-04T15:06:43.946Z,68.84
2017-11-04T15:07:43.629Z,69.02
2017-11-04T15:08:43.646Z,69.12
2017-11-04T15:09:44.037Z,69.21
2017-11-04T15:10:44.021Z,68.64
2017-11-04T15:11:44.046Z,69.12
2017-11-04T15:12:43.723Z,68.84
2017-11-04T15:13:43.743Z,68.84
2017-11-04T15:14:44.099Z,68.84
2017-11-04T15:15:43.785Z,69.02
2017-11-04T15:16:43.802Z,68.93
2017-11-04T15:17:44.156Z,69.12
2017-11-04T15:18:44.183Z,69.12
2017-11-04T15:19:43.864Z,68.84
2017-11-04T15:20:43.881Z,69.02
2017-11-04T15:21:44.237Z,68.93
2017-11-04T15:22:44.257Z,68.9
2017-11-04T15:23:44.275Z,68.9
2017-11-04T15:24:43.961Z,68.9
2017-11-04T15:25:44.312Z,68.7
2017-11-04T15:26:44.340Z,68.9
2017-11-04T15:27:44.351Z,68.61
2017-11-04T15:28:44.040Z,68.9
2017-11-04T15:29:44.059Z,68.41
2017-11-04T15:30:44.082Z,69.18
2017-11-04T15:31:44.096Z,69.09
2017-11-04T15:32:44.454Z,68.99
2017-11-04T15:33:44.474Z,68.99
2017-11-04T15:34:44.491Z,68.99
2017-11-04T15:35:44.173Z,69.66
2017-11-04T15:36:44.195Z,69.37
2017-11-04T15:37:44.550Z,69.47
2017-11-04T15:38:44.234Z,69.27
2017-11-04T15:39:44.586Z,69.27
2017-11-04T15:40:44.274Z,69.18
2017-11-04T15:41:44.628Z,69.27
2017-11-04T15:42:44.649Z,69.27
2017-11-04T15:43:44.665Z,69.18
2017-11-04T15:44:44.349Z,69.47
2017-11-04T15:45:44.704Z,69.37
2017-11-04T15:46:44.724Z,70.04
2017-11-04T15:47:44.745Z,69.66
2017-11-04T15:48:44.428Z,69.56
2017-11-04T15:49:44.446Z,69.85
2017-11-04T15:50:44.796Z,69.62
2017-11-04T15:51:44.483Z,69.72
2017-11-04T15:52:44.838Z,69.91
2017-11-04T15:53:44.526Z,69.53
2017-11-04T15:54:44.875Z,69.72
2017-11-04T15:55:44.562Z,69.34
2017-11-04T15:56:44.917Z,69.34
2017-11-04T15:57:44.600Z,69.43
2017-11-04T15:58:44.622Z,70.48
2017-11-04T15:59:44.644Z,69.72
2017-11-04T16:00:44.989Z,69.82
2017-11-04T16:01:44.676Z,70.48
2017-11-04T16:02:45.030Z,69.72
2017-11-04T16:03:45.049Z,69.82
2017-11-04T16:04:44.736Z,69.62
2017-11-04T16:05:45.092Z,69.82
2017-11-04T16:06:44.772Z,70.01
2017-11-04T16:07:44.792Z,70.01
2017-11-04T16:08:45.149Z,70.2
2017-11-04T16:09:44.829Z,70.39
2017-11-04T16:10:44.849Z,70.67
2017-11-04T16:11:45.208Z,70.2
2017-11-04T16:12:44.889Z,70.58
2017-11-04T16:13:45.237Z,70.67
2017-11-04T16:14:44.958Z,70.67
2017-11-04T16:15:44.944Z,70.58
2017-11-04T16:16:45.298Z,70.64
2017-11-04T16:17:45.322Z,70.77
2017-11-04T16:18:45.000Z,70.87
2017-11-04T16:19:45.033Z,70.48
2017-11-04T16:20:45.039Z,70.54
2017-11-04T16:21:45.393Z,70.48
2017-11-04T16:24:03.028Z,71.12
2017-11-04T16:25:03.059Z,71.15
2017-11-04T16:26:02.730Z,71.06
2017-11-04T16:27:03.089Z,70.87
2017-11-04T16:28:03.110Z,70.87
2017-11-04T16:29:03.141Z,70.92
2017-11-04T16:30:02.862Z,71.41
2017-11-04T16:31:03.165Z,71.41
2017-11-04T16:32:03.181Z,71.69
2017-11-04T16:33:02.863Z,71.21
2017-11-04T16:34:03.230Z,71.41
2017-11-04T16:35:03.231Z,71.31
2017-11-04T16:36:03.260Z,71.5
2017-11-04T16:37:03.271Z,71.31
2017-11-04T16:38:02.956Z,71.21
2017-11-04T16:39:03.309Z,71.31
2017-11-04T16:40:03.334Z,71.41
2017-11-04T16:41:03.013Z,71.31
2017-11-04T16:42:03.383Z,71.41
2017-11-04T16:43:03.388Z,71.41
2017-11-04T16:44:03.084Z,71.5
2017-11-04T16:45:03.088Z,71.5
2017-11-04T16:46:03.451Z,71.41
2017-11-04T16:47:03.461Z,71.02
2017-11-04T16:48:03.484Z,71.5
2017-11-04T16:49:03.494Z,71.88
2017-11-04T16:50:03.549Z,71.88
2017-11-04T16:51:03.214Z,71.98
2017-11-04T16:52:03.233Z,71.88
2017-11-04T16:53:03.239Z,71.69
2017-11-04T16:54:03.255Z,71.69
2017-11-04T16:55:03.274Z,71.69
2017-11-04T16:56:03.639Z,71.59
2017-11-04T16:57:03.321Z,71.69
2017-11-04T16:58:03.358Z,71.59
2017-11-04T16:59:03.687Z,72.26
2017-11-04T17:00:03.735Z,71.98
2017-11-04T17:01:03.717Z,71.98
2017-11-04T17:02:03.418Z,72.45
2017-11-04T17:03:03.761Z,72.17
2017-11-04T17:04:03.464Z,72.55
2017-11-04T17:05:03.797Z,72.26
2017-11-04T17:06:03.820Z,72.45
2017-11-04T17:07:03.512Z,72.26
2017-11-04T17:08:03.869Z,72.26
2017-11-04T17:09:03.868Z,72.45
2017-11-04T17:10:03.896Z,72.45
2017-11-04T17:11:03.928Z,72.17
2017-11-04T17:12:03.595Z,72.36
2017-11-04T17:13:03.985Z,72.17
2017-11-04T17:14:03.972Z,72.17
2017-11-04T17:15:03.984Z,72.36
2017-11-04T17:16:04.004Z,72.17
2017-11-04T17:17:03.685Z,72.26
2017-11-04T17:18:04.042Z,72.55
2017-11-04T17:19:04.066Z,72.93
2017-11-04T17:20:03.741Z,72.93
2017-11-04T17:21:04.094Z,73.03
2017-11-04T17:22:03.779Z,72.83
2017-11-04T17:23:03.844Z,72.64
2017-11-04T17:24:04.160Z,72.74
2017-11-04T17:25:03.831Z,73.03
2017-11-04T17:26:04.189Z,72.74
2017-11-04T17:27:03.870Z,72.64
2017-11-04T17:28:04.249Z,73.22
2017-11-04T17:29:03.924Z,73.22
2017-11-04T17:30:04.285Z,73.03
2017-11-04T17:31:04.293Z,73.22
2017-11-04T17:32:03.976Z,73.12
2017-11-04T17:33:03.994Z,73.22
2017-11-04T17:34:04.011Z,73.22
2017-11-04T17:35:04.018Z,73.03
2017-11-04T17:36:04.052Z,73.03
2017-11-04T17:37:04.412Z,73.32
2017-11-04T17:38:04.412Z,72.83
2017-11-04T17:39:04.093Z,73.22
2017-11-04T17:40:04.125Z,72.83
2017-11-04T17:41:04.125Z,73.08
2017-11-04T17:42:04.504Z,72.89
2017-11-04T17:43:04.166Z,72.83
2017-11-04T17:44:04.200Z,73.66
2017-11-04T17:45:04.203Z,73.08
2017-11-04T17:46:04.554Z,73.28
2017-11-04T17:47:04.571Z,73.47
2017-11-04T17:48:04.257Z,73.28
2017-11-04T17:49:04.607Z,72.89
2017-11-04T17:50:04.631Z,73.37
2017-11-04T17:51:04.653Z,73.85
2017-11-04T17:52:04.329Z,73.08
2017-11-04T17:53:04.686Z,73.18
2017-11-04T17:54:04.367Z,73.28
2017-11-04T17:55:04.722Z,73.47
2017-11-04T17:56:04.404Z,73.08
2017-11-04T17:57:04.422Z,73.28
2017-11-04T17:58:04.780Z,73.94
2017-11-04T17:59:04.819Z,73.94
2017-11-04T18:00:04.839Z,73.94
2017-11-04T18:01:04.844Z,73.94
2017-11-04T18:02:04.513Z,73.94
2017-11-04T18:03:04.544Z,73.37
2017-11-04T18:04:04.891Z,73.75
2017-11-04T18:05:04.908Z,73.85
2017-11-04T18:06:04.921Z,73.56
2017-11-04T18:07:04.601Z,73.47
2017-11-04T18:08:04.960Z,73.37
2017-11-04T18:09:05.008Z,73.75
2017-11-04T18:10:04.663Z,73.47
2017-11-04T18:11:05.015Z,73.28
2017-11-04T18:12:05.044Z,73.94
2017-11-04T18:13:04.712Z,73.66
2017-11-04T18:14:05.088Z,73.85
2017-11-04T18:15:05.085Z,73.85
2017-11-04T18:16:04.767Z,73.85
2017-11-04T18:17:05.121Z,73.85
2017-11-04T18:18:04.816Z,74.04
2017-11-04T18:19:05.167Z,73.75
2017-11-04T18:20:05.176Z,74.04
2017-11-04T18:21:05.194Z,74.04
2017-11-04T18:22:05.224Z,74.04
2017-11-04T18:23:04.907Z,73.85
2017-11-04T18:24:04.912Z,74.04
2017-11-04T18:25:04.936Z,73.85
2017-11-04T18:26:05.308Z,73.75
2017-11-04T18:27:05.306Z,73.75
2017-11-04T18:28:04.999Z,73.85
2017-11-04T18:29:05.004Z,74.04
2017-11-04T18:30:05.368Z,73.85
2017-11-04T18:31:05.372Z,73.85
2017-11-04T18:32:05.398Z,74.04
2017-11-04T18:33:05.409Z,73.85
2017-11-04T18:34:05.425Z,74.04
2017-11-04T18:35:05.450Z,74.13
2017-11-04T18:36:05.466Z,74.04
2017-11-04T18:37:05.481Z,74.52
2017-11-04T18:38:05.534Z,74.42
2017-11-04T18:39:05.521Z,74.32
2017-11-04T18:40:05.544Z,74.32
2017-11-04T18:41:05.556Z,74.23
2017-11-04T18:42:05.285Z,74.42
2017-11-04T18:43:05.590Z,74.71
2017-11-04T18:44:05.289Z,74.52
2017-11-04T18:45:05.307Z,74.42
2017-11-04T18:46:05.682Z,74.71
2017-11-04T18:47:05.339Z,74.9
2017-11-04T18:48:05.360Z,74.71
2017-11-04T18:49:05.363Z,74.42
2017-11-04T18:50:05.737Z,74.42
2017-11-04T18:51:05.758Z,74.71
2017-11-04T18:52:05.432Z,73.94
2017-11-04T18:53:05.430Z,74.9
2017-11-04T18:54:05.812Z,74.13
2017-11-04T18:55:05.802Z,74.9
2017-11-04T18:56:05.835Z,74.71
2017-11-04T18:57:05.851Z,74.71
2017-11-04T18:58:05.875Z,74.42
2017-11-04T18:59:05.556Z,74.23
2017-11-04T19:00:05.919Z,74.32
2017-11-04T19:01:05.581Z,74.32
2017-11-04T19:02:05.612Z,74.13
2017-11-04T19:03:05.953Z,74.13
2017-11-04T19:04:05.646Z,74.42
2017-11-04T19:05:06.027Z,74.42
2017-11-04T19:06:06.045Z,74.61
2017-11-04T19:07:05.704Z,74.61
2017-11-04T19:08:06.060Z,74.42
2017-11-04T19:09:06.067Z,74.32
2017-11-04T19:10:06.111Z,74.13
2017-11-04T19:11:06.120Z,74.9
2017-11-04T19:12:05.775Z,74.71
2017-11-04T19:13:06.151Z,74.52
2017-11-04T19:14:06.147Z,74.9
2017-11-04T19:15:06.191Z,74.99
2017-11-04T19:16:06.201Z,74.52
2017-11-04T19:17:06.216Z,74.67
2017-11-04T19:18:06.246Z,74.42
2017-11-04T19:19:06.241Z,74.23
2017-11-04T19:20:06.295Z,74.86
2017-11-04T19:21:06.321Z,74.99
2017-11-04T19:22:06.307Z,74.86
2017-11-04T19:23:05.972Z,74.86
2017-11-04T19:24:06.376Z,74.86
2017-11-04T19:25:06.343Z,74.77
2017-11-04T19:26:06.040Z,74.77
2017-11-04T19:27:06.044Z,75.24
2017-11-04T19:28:06.421Z,74.01
2017-11-04T19:29:06.435Z,74.77
2017-11-04T19:30:06.114Z,75.05
2017-11-04T19:31:06.146Z,74.67
2017-11-04T19:32:06.162Z,74.86
2017-11-04T19:33:06.166Z,75.15
2017-11-04T19:34:06.518Z,74.86
2017-11-04T19:35:06.200Z,74.67
2017-11-04T19:36:06.230Z,75.15
2017-11-04T19:37:06.221Z,75.15
2017-11-04T19:38:06.238Z,75.15
2017-11-04T19:39:06.257Z,74.77
2017-11-04T19:40:06.644Z,74.67
2017-11-04T19:41:06.294Z,74.8
2017-11-04T19:42:06.315Z,74.67
2017-11-04T19:43:06.344Z,75.05
2017-11-04T19:44:06.685Z,74.57
2017-11-04T19:45:06.703Z,74.77
2017-11-04T19:46:06.379Z,74.57
2017-11-04T19:47:06.733Z,75.15
2017-11-04T19:48:06.778Z,74.57
2017-11-04T19:49:06.448Z,75.34
2017-11-04T19:50:06.812Z,74.96
2017-11-04T19:51:06.831Z,75.05
2017-11-04T19:52:06.822Z,75.05
2017-11-04T19:53:06.858Z,75.05
2017-11-04T19:54:06.895Z,75.05
2017-11-04T19:55:06.915Z,75.24
2017-11-04T19:56:06.573Z,75.53
2017-11-04T19:57:06.593Z,75.62
2017-11-04T19:58:06.943Z,75.72
2017-11-04T19:59:06.986Z,75.53
2017-11-04T20:00:06.629Z,75.24
2017-11-04T20:01:06.980Z,75.05
2017-11-04T20:02:07.011Z,75.43
2017-11-04T20:03:06.699Z,75.24
2017-11-04T20:04:07.036Z,75.53
2017-11-04T20:05:06.733Z,75.24
2017-11-04T20:06:07.086Z,75.34
2017-11-04T20:07:06.799Z,75.81
2017-11-04T20:08:07.124Z,75.62
2017-11-04T20:09:06.792Z,75.62
2017-11-04T20:10:06.823Z,75.53
2017-11-04T20:11:07.192Z,75.62
2017-11-04T20:12:06.840Z,75.34
2017-11-04T20:13:07.214Z,75.43
2017-11-04T20:14:06.891Z,75.43
2017-11-04T20:15:06.914Z,75.43
2017-11-04T20:16:07.284Z,75.43
2017-11-04T20:17:07.297Z,75.34
2017-11-04T20:18:06.960Z,75.34
2017-11-04T20:19:06.970Z,75.43
2017-11-04T20:20:06.996Z,75.43
2017-11-04T20:21:07.015Z,75.34
2017-11-04T20:22:07.017Z,75.43
2017-11-04T20:23:07.034Z,75.24
2017-11-04T20:24:07.389Z,75.34
2017-11-04T20:25:07.081Z,75.43
2017-11-04T20:26:07.122Z,75.34
2017-11-04T20:27:07.118Z,75.34
2017-11-04T20:28:07.133Z,75.34
2017-11-04T20:29:07.189Z,75.43
2017-11-04T20:30:07.503Z,75.53
2017-11-04T20:31:07.512Z,75.43
2017-11-04T20:32:07.209Z,75.43
2017-11-04T20:33:07.228Z,75.43
2017-11-04T20:34:07.239Z,75.43
2017-11-04T20:35:07.275Z,75.43
2017-11-04T20:36:07.603Z,75.43
2017-11-04T20:37:07.636Z,75.43
2017-11-04T20:38:07.634Z,75.62
2017-11-04T20:39:07.699Z,75.62
2017-11-04T20:40:07.345Z,75.62
2017-11-04T20:41:07.364Z,75.43
2017-11-04T20:42:07.741Z,75.24
2017-11-04T20:43:07.731Z,75.53
2017-11-04T20:44:07.433Z,75.43
2017-11-04T20:45:07.798Z,75.34
2017-11-04T20:46:07.452Z,75.53
2017-11-04T20:47:07.787Z,75.81
2017-11-04T20:48:07.833Z,75.81
2017-11-04T20:49:07.823Z,75.91
2017-11-04T20:50:07.508Z,75.81
2017-11-04T20:51:07.523Z,76.1
2017-11-04T20:52:07.904Z,75.91
2017-11-04T20:53:07.589Z,75.62
2017-11-04T20:54:07.944Z,75.81
2017-11-04T20:55:07.592Z,75.72
2017-11-04T20:56:07.969Z,76.01
2017-11-04T20:57:07.999Z,76.2
2017-11-04T20:58:07.984Z,75.91
2017-11-04T20:59:08.001Z,76.2
2017-11-04T21:00:08.056Z,76.1
2017-11-04T21:01:08.032Z,75.34
2017-11-04T21:02:07.731Z,76.1
2017-11-04T21:03:07.746Z,76.1
2017-11-04T21:04:08.113Z,76.2
2017-11-04T21:05:08.120Z,76.57
2017-11-04T21:06:07.812Z,76.29
2017-11-04T21:07:07.814Z,76.57
2017-11-04T21:08:07.834Z,75.81
2017-11-04T21:09:08.192Z,76.01
2017-11-04T21:10:08.195Z,76.1
2017-11-04T21:11:08.231Z,76.16
2017-11-04T21:12:07.901Z,76.39
2017-11-04T21:13:08.240Z,76.16
2017-11-04T21:14:07.953Z,76.01
2017-11-04T21:15:08.331Z,75.91
2017-11-04T21:16:08.293Z,75.96
2017-11-04T21:17:08.345Z,76.29
2017-11-04T21:18:08.345Z,76.16
2017-11-04T21:19:08.038Z,76.2
2017-11-04T21:20:08.400Z,75.91
2017-11-04T21:21:08.075Z,76.1
2017-11-04T21:22:08.407Z,76.48
2017-11-04T21:23:08.417Z,76.39
2017-11-04T21:24:08.094Z,76.1
2017-11-04T21:25:08.470Z,76.1
2017-11-04T21:26:08.473Z,76.29
2017-11-04T21:27:08.489Z,75.91
2017-11-04T21:28:08.504Z,76.29
2017-11-04T21:29:08.558Z,76.44
2017-11-04T21:30:08.574Z,76.48
2017-11-04T21:31:08.591Z,76.29
2017-11-04T21:32:08.266Z,75.91
2017-11-04T21:33:08.290Z,76.86
2017-11-04T21:34:08.291Z,76.57
2017-11-04T21:35:08.622Z,75.91
2017-11-04T21:36:08.338Z,76.25
2017-11-04T21:37:08.685Z,76.48
2017-11-04T21:38:08.687Z,76.25
2017-11-04T21:39:08.355Z,76.16
2017-11-04T21:40:08.728Z,76.06
2017-11-04T21:41:08.730Z,76.06
2017-11-04T21:42:08.423Z,76.25
2017-11-04T21:43:08.778Z,76.39
2017-11-04T21:44:08.464Z,75.96
2017-11-04T21:45:08.480Z,76.06
2017-11-04T21:46:08.518Z,76.44
2017-11-04T21:47:08.521Z,76.39
2017-11-04T21:48:08.531Z,76.16
2017-11-04T21:49:08.904Z,76.29
2017-11-04T21:50:08.558Z,76.06
2017-11-04T21:51:08.593Z,76.73
2017-11-04T21:52:08.593Z,76.73
2017-11-04T21:53:08.944Z,76.06
2017-11-04T21:54:08.946Z,76.44
2017-11-04T21:55:08.986Z,76.06
2017-11-04T21:56:08.999Z,75.81
2017-11-04T21:57:09.015Z,76.29
2017-11-04T21:58:09.041Z,76.44
2017-11-04T21:59:09.048Z,76.25
2017-11-04T22:00:09.055Z,76.16
2017-11-04T22:01:09.092Z,76.06
2017-11-04T22:02:08.767Z,76.44
2017-11-04T22:03:08.780Z,76.06
2017-11-04T22:04:08.801Z,76.06
2017-11-04T22:05:08.830Z,76.06
2017-11-04T22:06:08.830Z,76.35
2017-11-04T22:07:09.188Z,76.35
2017-11-04T22:08:09.192Z,76.64
2017-11-04T22:09:09.230Z,77.01
2017-11-04T22:10:09.248Z,76.64
2017-11-04T22:11:08.918Z,77.01
2017-11-04T22:12:08.924Z,77.11
2017-11-04T22:13:09.275Z,75.96
2017-11-04T22:14:08.971Z,76.54
2017-11-04T22:15:09.327Z,77.3
2017-11-04T22:16:09.006Z,76.54
2017-11-04T22:17:09.036Z,77.11
2017-11-04T22:18:09.370Z,76.73
2017-11-04T22:19:09.042Z,77.01
2017-11-04T22:20:09.087Z,76.54
2017-11-04T22:21:09.112Z,76.92
2017-11-04T22:22:09.423Z,76.92
2017-11-04T22:23:09.480Z,76.82
2017-11-04T22:24:09.469Z,77.01
2017-11-04T22:25:09.145Z,76.82
2017-11-04T22:26:09.536Z,76.82
2017-11-04T22:27:09.527Z,76.92
2017-11-04T22:28:09.213Z,76.92
2017-11-04T22:29:09.592Z,77.01
2017-11-04T22:30:09.260Z,76.92
2017-11-04T22:31:09.246Z,76.92
2017-11-04T22:32:09.279Z,76.92
2017-11-04T22:33:09.654Z,76.92
2017-11-04T22:34:09.635Z,77.01
2017-11-04T22:35:09.340Z,76.92
2017-11-04T22:36:09.686Z,76.54
2017-11-04T22:37:09.697Z,76.64
2017-11-04T22:38:09.367Z,77.4
2017-11-04T22:39:09.738Z,77.2
2017-11-04T22:40:09.736Z,77.3
2017-11-04T22:41:09.747Z,77.4
2017-11-04T22:42:09.442Z,77.49
2017-11-04T22:43:09.787Z,77.49
2017-11-04T22:44:09.818Z,76.73
2017-11-04T22:45:09.826Z,77.4
2017-11-04T22:46:09.848Z,77.3
2017-11-04T22:47:09.852Z,77.4
2017-11-04T22:48:09.537Z,77.3
2017-11-04T22:49:09.882Z,77.78
2017-11-04T22:50:09.926Z,77.97
2017-11-04T22:51:09.583Z,77.11
2017-11-04T22:52:09.958Z,77.01
2017-11-04T22:53:09.633Z,77.3
2017-11-04T22:54:09.647Z,77.49
2017-11-04T22:55:09.658Z,77.2
2017-11-04T22:56:10.019Z,77.4
2017-11-04T22:57:09.707Z,77.69
2017-11-04T22:58:10.054Z,77.11
2017-11-04T22:59:10.055Z,77.2
2017-11-04T23:00:09.755Z,76.92
2017-11-04T23:01:09.754Z,76.92
2017-11-04T23:02:10.136Z,76.92
2017-11-04T23:03:10.136Z,77.4
2017-11-04T23:04:10.135Z,77.01
2017-11-04T23:05:10.165Z,76.92
2017-11-04T23:06:09.849Z,77.97
2017-11-04T23:07:10.208Z,77.49
2017-11-04T23:08:09.885Z,77.59
2017-11-04T23:09:10.221Z,77.49
2017-11-04T23:10:09.905Z,77.3
2017-11-04T23:11:10.282Z,77.2
2017-11-04T23:12:09.949Z,77.59
2017-11-04T23:13:09.968Z,77.4
2017-11-04T23:14:10.335Z,76.92
2017-11-04T23:15:10.003Z,77.49
2017-11-04T23:16:10.343Z,77.59
2017-11-04T23:17:10.035Z,77.4
2017-11-04T23:18:10.377Z,77.78
2017-11-04T23:19:10.395Z,77.3
2017-11-04T23:20:10.075Z,77.4
2017-11-04T23:21:10.094Z,77.4
2017-11-04T23:22:10.440Z,77.49
2017-11-04T23:23:10.471Z,77.49
2017-11-04T23:24:10.483Z,77.59
2017-11-04T23:25:10.160Z,77.87
2017-11-04T23:26:10.176Z,77.4
2017-11-04T23:27:10.538Z,78.06
2017-11-04T23:28:10.548Z,78.06
2017-11-04T23:29:10.564Z,77.69
2017-11-04T23:30:10.239Z,77.59
2017-11-04T23:31:10.261Z,77.2
2017-11-04T23:32:10.624Z,78.16
2017-11-04T23:33:10.293Z,77.59
2017-11-04T23:34:10.309Z,77.59
2017-11-04T23:35:10.666Z,77.3
2017-11-04T23:36:10.346Z,77.59
2017-11-04T23:37:10.701Z,77.59
2017-11-04T23:38:10.710Z,77.97
2017-11-04T23:39:10.730Z,77.59
2017-11-04T23:40:10.407Z,77.69
2017-11-04T23:45:38.952Z,78.06
2017-11-04T23:46:38.630Z,77.69
2017-11-04T23:47:38.642Z,77.97
